LAN29W SABE-SACO
Flight info
| Callsign | LAN29W |
|---|---|
| Flight time | 1h 50m |
| Altitude | 36000 |
| Route | ATOVO4B ATOVO UW5 ASISA ASISA1Q |
| Aircraft | A320/M-SDE3FGHIRWY/LB1 |
Departure
| Time | 2026-05-03 21:54 |
|---|---|
| Airport | Aeroparque Jorge Newbery (SABE) |
Arrival
| Time | 2026-05-03 23:44 |
|---|---|
| Airport | Ingeniero Aeronáutico Ambrosio L.V. Taravella International Airport (SACO) |
| Time | Latitude | Longitude | Altitude | Speed | Heading |
|---|---|---|---|---|---|
| 2026-05-03 20:49 | -34.55742 | -58.41364 | 27 ft | 0 kts | 34° |
| 2026-05-03 20:51 | -34.55723 | -58.41403 | 28 ft | 0 kts | 34° |
| 2026-05-03 21:25 | -34.55727 | -58.41406 | 27 ft | 2 kts | 34° |
| 2026-05-03 21:26 | -34.55741 | -58.41418 | 27 ft | 2 kts | 12° |
| 2026-05-03 21:26 | -34.55757 | -58.41420 | 27 ft | 2 kts | 342° |
| 2026-05-03 21:26 | -34.55759 | -58.41425 | 27 ft | 2 kts | 304° |
| 2026-05-03 21:26 | -34.55756 | -58.41431 | 27 ft | 0 kts | 300° |
| 2026-05-03 21:28 | -34.55754 | -58.41436 | 27 ft | 4 kts | 300° |
| 2026-05-03 21:28 | -34.55726 | -58.41509 | 27 ft | 13 kts | 280° |
| 2026-05-03 21:28 | -34.55786 | -58.41582 | 27 ft | 13 kts | 173° |
| 2026-05-03 21:29 | -34.55844 | -58.41489 | 27 ft | 15 kts | 117° |
| 2026-05-03 21:29 | -34.55894 | -58.41370 | 27 ft | 17 kts | 116° |
| 2026-05-03 21:29 | -34.55957 | -58.41243 | 27 ft | 19 kts | 126° |
| 2026-05-03 21:29 | -34.56038 | -58.41110 | 27 ft | 21 kts | 127° |
| 2026-05-03 21:30 | -34.56129 | -58.40966 | 27 ft | 22 kts | 127° |
| 2026-05-03 21:30 | -34.56165 | -58.40831 | 27 ft | 15 kts | 116° |
| 2026-05-03 21:30 | -34.56197 | -58.40775 | 27 ft | 0 kts | 125° |
| 2026-05-03 21:31 | -34.56198 | -58.40772 | 27 ft | 1 kts | 123° |
| 2026-05-03 21:31 | -34.56207 | -58.40755 | 27 ft | 4 kts | 123° |
| 2026-05-03 21:32 | -34.56227 | -58.40720 | 27 ft | 6 kts | 123° |
| 2026-05-03 21:32 | -34.56236 | -58.40702 | 27 ft | 0 kts | 124° |
| 2026-05-03 21:33 | -34.56237 | -58.40701 | 27 ft | 1 kts | 123° |
| 2026-05-03 21:33 | -34.56245 | -58.40686 | 27 ft | 3 kts | 124° |
| 2026-05-03 21:33 | -34.56248 | -58.40681 | 27 ft | 0 kts | 124° |
| 2026-05-03 21:34 | -34.56251 | -58.40675 | 27 ft | 2 kts | 124° |
| 2026-05-03 21:34 | -34.56253 | -58.40672 | 27 ft | 0 kts | 124° |
| 2026-05-03 21:35 | -34.56256 | -58.40666 | 27 ft | 2 kts | 124° |
| 2026-05-03 21:35 | -34.56270 | -58.40641 | 27 ft | 0 kts | 124° |
| 2026-05-03 21:39 | -34.56270 | -58.40642 | 27 ft | 0 kts | 124° |
| 2026-05-03 21:40 | -34.56273 | -58.40637 | 27 ft | 2 kts | 124° |
| 2026-05-03 21:40 | -34.56285 | -58.40615 | 27 ft | 4 kts | 124° |
| 2026-05-03 21:40 | -34.56296 | -58.40596 | 27 ft | 0 kts | 124° |
| 2026-05-03 21:42 | -34.56298 | -58.40591 | 27 ft | 2 kts | 124° |
| 2026-05-03 21:42 | -34.56307 | -58.40575 | 27 ft | 0 kts | 124° |
| 2026-05-03 21:43 | -34.56308 | -58.40574 | 27 ft | 1 kts | 124° |
| 2026-05-03 21:43 | -34.56317 | -58.40557 | 27 ft | 4 kts | 124° |
| 2026-05-03 21:43 | -34.56338 | -58.40526 | 27 ft | 6 kts | 133° |
| 2026-05-03 21:44 | -34.56342 | -58.40522 | 27 ft | 0 kts | 134° |
| 2026-05-03 21:45 | -34.56349 | -58.40513 | 27 ft | 3 kts | 136° |
| 2026-05-03 21:45 | -34.56356 | -58.40505 | 27 ft | 0 kts | 136° |
| 2026-05-03 21:47 | -34.56358 | -58.40502 | 27 ft | 2 kts | 136° |
| 2026-05-03 21:48 | -34.56373 | -58.40486 | 27 ft | 4 kts | 139° |
| 2026-05-03 21:48 | -34.56402 | -58.40455 | 27 ft | 7 kts | 139° |
| 2026-05-03 21:48 | -34.56405 | -58.40452 | 27 ft | 0 kts | 139° |
| 2026-05-03 21:50 | -34.56414 | -58.40442 | 27 ft | 3 kts | 138° |
| 2026-05-03 21:50 | -34.56429 | -58.40426 | 27 ft | 0 kts | 138° |
| 2026-05-03 21:51 | -34.56437 | -58.40418 | 27 ft | 5 kts | 139° |
| 2026-05-03 21:51 | -34.56500 | -58.40366 | 26 ft | 14 kts | 166° |
| 2026-05-03 21:51 | -34.56554 | -58.40437 | 25 ft | 14 kts | 285° |
| 2026-05-03 21:52 | -34.56518 | -58.40507 | 29 ft | 0 kts | 304° |
| 2026-05-03 21:53 | -34.56425 | -58.40673 | 25 ft | 58 kts | 304° |
| 2026-05-03 21:53 | -34.56078 | -58.41295 | 27 ft | 117 kts | 304° |
| 2026-05-03 21:53 | -34.55545 | -58.42245 | 229 ft | 141 kts | 306° |
| 2026-05-03 21:54 | -34.55006 | -58.43223 | 822 ft | 144 kts | 306° |
| 2026-05-03 21:54 | -34.54435 | -58.44257 | 1322 ft | 153 kts | 314° |
| 2026-05-03 21:54 | -34.53560 | -58.45098 | 1608 ft | 170 kts | 332° |
| 2026-05-03 21:54 | -34.52417 | -58.45688 | 1938 ft | 187 kts | 343° |
| 2026-05-03 21:55 | -34.51067 | -58.45968 | 2262 ft | 208 kts | 358° |
| 2026-05-03 21:55 | -34.49556 | -58.45670 | 2644 ft | 235 kts | 18° |
| 2026-05-03 21:55 | -34.48074 | -58.44663 | 3294 ft | 251 kts | 31° |
| 2026-05-03 21:55 | -34.46628 | -58.43419 | 4136 ft | 258 kts | 29° |
| 2026-05-03 21:56 | -34.45079 | -58.42274 | 4982 ft | 265 kts | 27° |
| 2026-05-03 21:56 | -34.43496 | -58.41130 | 5777 ft | 271 kts | 27° |
| 2026-05-03 21:56 | -34.41870 | -58.39937 | 6634 ft | 276 kts | 28° |
| 2026-05-03 21:56 | -34.40219 | -58.38707 | 7392 ft | 282 kts | 27° |
| 2026-05-03 21:57 | -34.38443 | -58.37716 | 8159 ft | 281 kts | 9° |
| 2026-05-03 21:57 | -34.36505 | -58.37535 | 8906 ft | 280 kts | 349° |
| 2026-05-03 21:57 | -34.34642 | -58.38143 | 9681 ft | 277 kts | 331° |
| 2026-05-03 21:57 | -34.33004 | -58.39362 | 10399 ft | 281 kts | 322° |
| 2026-05-03 21:58 | -34.31337 | -58.40759 | 10676 ft | 302 kts | 322° |
| 2026-05-03 21:58 | -34.29555 | -58.42245 | 10941 ft | 321 kts | 322° |
| 2026-05-03 21:58 | -34.27664 | -58.43810 | 11314 ft | 335 kts | 322° |
| 2026-05-03 21:58 | -34.25714 | -58.45415 | 11918 ft | 341 kts | 322° |
| 2026-05-03 21:59 | -34.23745 | -58.47037 | 12621 ft | 344 kts | 322° |
| 2026-05-03 21:59 | -34.21791 | -58.48649 | 13300 ft | 347 kts | 322° |
| 2026-05-03 21:59 | -34.19777 | -58.50319 | 13863 ft | 354 kts | 322° |
| 2026-05-03 21:59 | -34.17742 | -58.52032 | 14403 ft | 359 kts | 321° |
| 2026-05-03 22:00 | -34.15788 | -58.53898 | 14985 ft | 358 kts | 311° |
| 2026-05-03 22:00 | -34.14287 | -58.56271 | 15594 ft | 355 kts | 296° |
| 2026-05-03 22:00 | -34.13379 | -58.59018 | 16187 ft | 353 kts | 282° |
| 2026-05-03 22:00 | -34.13079 | -58.61959 | 16738 ft | 355 kts | 269° |
| 2026-05-03 22:01 | -34.13316 | -58.64933 | 17325 ft | 358 kts | 262° |
| 2026-05-03 22:01 | -34.13636 | -58.67922 | 17976 ft | 360 kts | 262° |
| 2026-05-03 22:01 | -34.13959 | -58.70922 | 18604 ft | 362 kts | 262° |
| 2026-05-03 22:01 | -34.14282 | -58.73900 | 19169 ft | 364 kts | 262° |
| 2026-05-03 22:02 | -34.14618 | -58.76937 | 19763 ft | 366 kts | 261° |
| 2026-05-03 22:02 | -34.14968 | -58.79986 | 20392 ft | 367 kts | 261° |
| 2026-05-03 22:02 | -34.15326 | -58.83036 | 21040 ft | 367 kts | 261° |
| 2026-05-03 22:02 | -34.15690 | -58.86102 | 21563 ft | 371 kts | 261° |
| 2026-05-03 22:03 | -34.16051 | -58.89194 | 22059 ft | 374 kts | 261° |
| 2026-05-03 22:03 | -34.16406 | -58.92320 | 22517 ft | 377 kts | 262° |
| 2026-05-03 22:03 | -34.16532 | -58.95487 | 23009 ft | 381 kts | 273° |
| 2026-05-03 22:03 | -34.16059 | -58.98604 | 23493 ft | 386 kts | 283° |
| 2026-05-03 22:04 | -34.15054 | -59.01632 | 23920 ft | 393 kts | 294° |
| 2026-05-03 22:04 | -34.13554 | -59.04427 | 24331 ft | 400 kts | 303° |
| 2026-05-03 22:04 | -34.11786 | -59.07040 | 24678 ft | 404 kts | 304° |
| 2026-05-03 22:04 | -34.09966 | -59.09640 | 25044 ft | 407 kts | 305° |
| 2026-05-03 22:05 | -34.08119 | -59.12245 | 25407 ft | 409 kts | 305° |
| 2026-05-03 22:05 | -34.06263 | -59.14862 | 25763 ft | 412 kts | 305° |
| 2026-05-03 22:05 | -34.04408 | -59.17499 | 26119 ft | 414 kts | 304° |
| 2026-05-03 22:05 | -34.02551 | -59.20163 | 26471 ft | 416 kts | 304° |
| 2026-05-03 22:06 | -34.00693 | -59.22845 | 26822 ft | 418 kts | 304° |
| 2026-05-03 22:06 | -33.98852 | -59.25507 | 27166 ft | 420 kts | 304° |
| 2026-05-03 22:06 | -33.96980 | -59.28218 | 27516 ft | 422 kts | 304° |
| 2026-05-03 22:06 | -33.95095 | -59.30945 | 27864 ft | 424 kts | 304° |
| 2026-05-03 22:07 | -33.93198 | -59.33677 | 28200 ft | 427 kts | 304° |
| 2026-05-03 22:07 | -33.91285 | -59.36423 | 28536 ft | 429 kts | 304° |
| 2026-05-03 22:07 | -33.89360 | -59.39180 | 28868 ft | 431 kts | 304° |
| 2026-05-03 22:07 | -33.87433 | -59.41939 | 29318 ft | 430 kts | 304° |
| 2026-05-03 22:08 | -33.85515 | -59.44685 | 29806 ft | 429 kts | 304° |
| 2026-05-03 22:08 | -33.83600 | -59.47427 | 30263 ft | 428 kts | 303° |
| 2026-05-03 22:08 | -33.81689 | -59.50162 | 30668 ft | 427 kts | 303° |
| 2026-05-03 22:08 | -33.79786 | -59.52881 | 31072 ft | 426 kts | 303° |
| 2026-05-03 22:09 | -33.77900 | -59.55569 | 31479 ft | 425 kts | 303° |
| 2026-05-03 22:09 | -33.75997 | -59.58283 | 31891 ft | 424 kts | 303° |
| 2026-05-03 22:09 | -33.74101 | -59.60988 | 32304 ft | 423 kts | 303° |
| 2026-05-03 22:10 | -33.70328 | -59.66378 | 33146 ft | 421 kts | 303° |
| 2026-05-03 22:10 | -33.68444 | -59.69065 | 33576 ft | 420 kts | 303° |
| 2026-05-03 22:10 | -33.66564 | -59.71739 | 33995 ft | 419 kts | 302° |
| 2026-05-03 22:10 | -33.64686 | -59.74406 | 34368 ft | 418 kts | 302° |
| 2026-05-03 22:11 | -33.62811 | -59.77065 | 34729 ft | 417 kts | 302° |
| 2026-05-03 22:11 | -33.60963 | -59.79681 | 35073 ft | 416 kts | 302° |
| 2026-05-03 22:11 | -33.59093 | -59.82322 | 35417 ft | 415 kts | 302° |
| 2026-05-03 22:11 | -33.57230 | -59.84953 | 35748 ft | 413 kts | 302° |
| 2026-05-03 22:12 | -33.55372 | -59.87580 | 36003 ft | 413 kts | 302° |
| 2026-05-03 22:12 | -33.51657 | -59.92830 | 36059 ft | 412 kts | 302° |
| 2026-05-03 22:13 | -33.47946 | -59.98058 | 36066 ft | 412 kts | 302° |
| 2026-05-03 22:13 | -33.44241 | -60.03286 | 36054 ft | 412 kts | 302° |
| 2026-05-03 22:14 | -33.40553 | -60.08471 | 36056 ft | 412 kts | 302° |
| 2026-05-03 22:14 | -33.36837 | -60.13692 | 36053 ft | 412 kts | 302° |
| 2026-05-03 22:15 | -33.33118 | -60.18912 | 36053 ft | 412 kts | 302° |
| 2026-05-03 22:15 | -33.29392 | -60.24128 | 36050 ft | 413 kts | 303° |
| 2026-05-03 22:16 | -33.25687 | -60.29311 | 36051 ft | 413 kts | 303° |
| 2026-05-03 22:16 | -33.21955 | -60.34519 | 36050 ft | 413 kts | 303° |
| 2026-05-03 22:17 | -33.18219 | -60.39724 | 36046 ft | 413 kts | 303° |
| 2026-05-03 22:17 | -33.14483 | -60.44924 | 36053 ft | 413 kts | 303° |
| 2026-05-03 22:18 | -33.10742 | -60.50123 | 36053 ft | 413 kts | 303° |
| 2026-05-03 22:18 | -33.06999 | -60.55312 | 36055 ft | 413 kts | 303° |
| 2026-05-03 22:19 | -33.03282 | -60.60464 | 36059 ft | 413 kts | 303° |
| 2026-05-03 22:19 | -32.99543 | -60.65647 | 36060 ft | 412 kts | 303° |
| 2026-05-03 22:20 | -32.95804 | -60.70824 | 36065 ft | 412 kts | 303° |
| 2026-05-03 22:20 | -32.92056 | -60.75994 | 36063 ft | 412 kts | 303° |
| 2026-05-03 22:21 | -32.88836 | -60.81509 | 36064 ft | 403 kts | 293° |
| 2026-05-03 22:21 | -32.86058 | -60.87149 | 36056 ft | 392 kts | 294° |
| 2026-05-03 22:22 | -32.83309 | -60.92708 | 36053 ft | 389 kts | 293° |
| 2026-05-03 22:22 | -32.80569 | -60.98251 | 36049 ft | 389 kts | 294° |
| 2026-05-03 22:23 | -32.77826 | -61.03784 | 36045 ft | 388 kts | 294° |
| 2026-05-03 22:23 | -32.75083 | -61.09313 | 36039 ft | 389 kts | 294° |
| 2026-05-03 22:24 | -32.72354 | -61.14808 | 36032 ft | 389 kts | 294° |
| 2026-05-03 22:24 | -32.69594 | -61.20336 | 36034 ft | 389 kts | 294° |
| 2026-05-03 22:25 | -32.66837 | -61.25868 | 36035 ft | 389 kts | 294° |
| 2026-05-03 22:25 | -32.64079 | -61.31398 | 36035 ft | 389 kts | 294° |
| 2026-05-03 22:26 | -32.61317 | -61.36927 | 36035 ft | 390 kts | 294° |
| 2026-05-03 22:26 | -32.58569 | -61.42418 | 36030 ft | 390 kts | 294° |
| 2026-05-03 22:27 | -32.55795 | -61.47938 | 36037 ft | 390 kts | 294° |
| 2026-05-03 22:27 | -32.53021 | -61.53463 | 36035 ft | 390 kts | 294° |
| 2026-05-03 22:28 | -32.50248 | -61.58984 | 36035 ft | 390 kts | 294° |
| 2026-05-03 22:28 | -32.47482 | -61.64465 | 36032 ft | 390 kts | 295° |
| 2026-05-03 22:29 | -32.44700 | -61.69981 | 36034 ft | 390 kts | 295° |
| 2026-05-03 22:29 | -32.41916 | -61.75490 | 36040 ft | 390 kts | 295° |
| 2026-05-03 22:30 | -32.39123 | -61.81004 | 36036 ft | 390 kts | 295° |
| 2026-05-03 22:30 | -32.36330 | -61.86511 | 36037 ft | 390 kts | 295° |
| 2026-05-03 22:31 | -32.33531 | -61.92014 | 36033 ft | 390 kts | 295° |
| 2026-05-03 22:31 | -32.30756 | -61.97483 | 36033 ft | 390 kts | 295° |
| 2026-05-03 22:32 | -32.27960 | -62.02990 | 36034 ft | 391 kts | 295° |
| 2026-05-03 22:32 | -32.25158 | -62.08488 | 36034 ft | 391 kts | 295° |
| 2026-05-03 22:33 | -32.22356 | -62.13986 | 36032 ft | 391 kts | 295° |
| 2026-05-03 22:33 | -32.19570 | -62.19441 | 36029 ft | 391 kts | 295° |
| 2026-05-03 22:34 | -32.16755 | -62.24932 | 36031 ft | 391 kts | 295° |
| 2026-05-03 22:34 | -32.13939 | -62.30422 | 35670 ft | 392 kts | 296° |
| 2026-05-03 22:34 | -32.12530 | -62.33168 | 35115 ft | 392 kts | 296° |
| 2026-05-03 22:35 | -32.11116 | -62.35930 | 34523 ft | 393 kts | 296° |
| 2026-05-03 22:35 | -32.09702 | -62.38698 | 33910 ft | 396 kts | 296° |
| 2026-05-03 22:35 | -32.08274 | -62.41489 | 33160 ft | 399 kts | 296° |
| 2026-05-03 22:35 | -32.06832 | -62.44295 | 32438 ft | 402 kts | 296° |
| 2026-05-03 22:36 | -32.05395 | -62.47081 | 31730 ft | 404 kts | 296° |
| 2026-05-03 22:36 | -32.03931 | -62.49922 | 31012 ft | 407 kts | 296° |
| 2026-05-03 22:36 | -32.02457 | -62.52779 | 30285 ft | 409 kts | 297° |
| 2026-05-03 22:36 | -32.00972 | -62.55651 | 29478 ft | 412 kts | 297° |
| 2026-05-03 22:37 | -31.99486 | -62.58518 | 28884 ft | 408 kts | 297° |
| 2026-05-03 22:37 | -31.98013 | -62.61362 | 28319 ft | 405 kts | 297° |
| 2026-05-03 22:37 | -31.96556 | -62.64177 | 27766 ft | 401 kts | 297° |
| 2026-05-03 22:37 | -31.95109 | -62.66972 | 27226 ft | 398 kts | 297° |
| 2026-05-03 22:38 | -31.93671 | -62.69743 | 26689 ft | 395 kts | 297° |
| 2026-05-03 22:38 | -31.92243 | -62.72494 | 26174 ft | 392 kts | 297° |
| 2026-05-03 22:38 | -31.90828 | -62.75232 | 25665 ft | 390 kts | 297° |
| 2026-05-03 22:38 | -31.89442 | -62.77909 | 25192 ft | 387 kts | 297° |
| 2026-05-03 22:39 | -31.88045 | -62.80606 | 24732 ft | 385 kts | 297° |
| 2026-05-03 22:39 | -31.86653 | -62.83291 | 24287 ft | 383 kts | 297° |
| 2026-05-03 22:39 | -31.85266 | -62.85966 | 23831 ft | 382 kts | 297° |
| 2026-05-03 22:39 | -31.83889 | -62.88615 | 23416 ft | 379 kts | 297° |
| 2026-05-03 22:40 | -31.82516 | -62.91251 | 22962 ft | 376 kts | 297° |
| 2026-05-03 22:40 | -31.81127 | -62.93844 | 22502 ft | 376 kts | 302° |
| 2026-05-03 22:40 | -31.79246 | -62.95991 | 22065 ft | 382 kts | 322° |
| 2026-05-03 22:40 | -31.76814 | -62.97278 | 21615 ft | 389 kts | 342° |
| 2026-05-03 22:41 | -31.74102 | -62.97548 | 21160 ft | 396 kts | 359° |
| 2026-05-03 22:41 | -31.71359 | -62.97259 | 20678 ft | 395 kts | 2° |
| 2026-05-03 22:41 | -31.68672 | -62.96935 | 20228 ft | 392 kts | 2° |
| 2026-05-03 22:41 | -31.65966 | -62.96609 | 19789 ft | 389 kts | 2° |
| 2026-05-03 22:42 | -31.63281 | -62.96287 | 19341 ft | 386 kts | 2° |
| 2026-05-03 22:42 | -31.60620 | -62.95972 | 18895 ft | 383 kts | 2° |
| 2026-05-03 22:42 | -31.57974 | -62.95664 | 18456 ft | 381 kts | 2° |
| 2026-05-03 22:42 | -31.55344 | -62.95362 | 17972 ft | 378 kts | 2° |
| 2026-05-03 22:43 | -31.52738 | -62.95069 | 17483 ft | 375 kts | 2° |
| 2026-05-03 22:43 | -31.50155 | -62.94785 | 17019 ft | 372 kts | 2° |
| 2026-05-03 22:43 | -31.47590 | -62.94509 | 16555 ft | 368 kts | 2° |
| 2026-05-03 22:43 | -31.45082 | -62.94244 | 16107 ft | 365 kts | 1° |
| 2026-05-03 22:44 | -31.42560 | -62.93986 | 15658 ft | 362 kts | 1° |
| 2026-05-03 22:44 | -31.40073 | -62.94024 | 15223 ft | 355 kts | 352° |
| 2026-05-03 22:44 | -31.37620 | -62.94262 | 14788 ft | 352 kts | 352° |
| 2026-05-03 22:44 | -31.35185 | -62.94517 | 14358 ft | 350 kts | 352° |
| 2026-05-03 22:45 | -31.32774 | -62.94775 | 13937 ft | 347 kts | 352° |
| 2026-05-03 22:45 | -31.30380 | -62.95035 | 13476 ft | 344 kts | 352° |
| 2026-05-03 22:45 | -31.28007 | -62.95301 | 13010 ft | 341 kts | 352° |
| 2026-05-03 22:45 | -31.25653 | -62.95574 | 12542 ft | 339 kts | 352° |
| 2026-05-03 22:46 | -31.23313 | -62.95855 | 12121 ft | 336 kts | 352° |
| 2026-05-03 22:46 | -31.20995 | -62.96142 | 12006 ft | 336 kts | 351° |
| 2026-05-03 22:46 | -31.18702 | -62.96649 | 12029 ft | 335 kts | 342° |
| 2026-05-03 22:46 | -31.16486 | -62.97377 | 12029 ft | 336 kts | 341° |
| 2026-05-03 22:47 | -31.14240 | -62.98135 | 12029 ft | 336 kts | 341° |
| 2026-05-03 22:47 | -31.12000 | -62.98894 | 12028 ft | 335 kts | 341° |
| 2026-05-03 22:47 | -31.09759 | -62.99652 | 12031 ft | 336 kts | 341° |
| 2026-05-03 22:47 | -31.07518 | -63.00410 | 12027 ft | 336 kts | 341° |
| 2026-05-03 22:48 | -31.05271 | -63.01170 | 12025 ft | 336 kts | 341° |
| 2026-05-03 22:48 | -31.03030 | -63.01927 | 12026 ft | 336 kts | 341° |
| 2026-05-03 22:48 | -31.00787 | -63.02686 | 12027 ft | 336 kts | 341° |
| 2026-05-03 22:48 | -30.98577 | -63.03433 | 12026 ft | 335 kts | 341° |
| 2026-05-03 22:49 | -30.96335 | -63.04191 | 12027 ft | 336 kts | 341° |
| 2026-05-03 22:49 | -30.94092 | -63.04949 | 12026 ft | 335 kts | 341° |
| 2026-05-03 22:49 | -30.91853 | -63.05707 | 12028 ft | 335 kts | 341° |
| 2026-05-03 22:49 | -30.89614 | -63.06465 | 12026 ft | 335 kts | 341° |
| 2026-05-03 22:50 | -30.87410 | -63.07337 | 12021 ft | 333 kts | 330° |
| 2026-05-03 22:50 | -30.85483 | -63.08805 | 12027 ft | 331 kts | 322° |
| 2026-05-03 22:50 | -30.83628 | -63.10391 | 12027 ft | 331 kts | 321° |
| 2026-05-03 22:50 | -30.81803 | -63.11962 | 12027 ft | 331 kts | 321° |
| 2026-05-03 22:51 | -30.79954 | -63.13554 | 12027 ft | 331 kts | 321° |
| 2026-05-03 22:51 | -30.78106 | -63.15145 | 12026 ft | 331 kts | 321° |
| 2026-05-03 22:51 | -30.76258 | -63.16735 | 12026 ft | 331 kts | 321° |
| 2026-05-03 22:51 | -30.74408 | -63.18327 | 12027 ft | 330 kts | 321° |
| 2026-05-03 22:52 | -30.72568 | -63.19924 | 12027 ft | 330 kts | 319° |
| 2026-05-03 22:52 | -30.70916 | -63.21764 | 12025 ft | 329 kts | 312° |
| 2026-05-03 22:52 | -30.69346 | -63.23691 | 12025 ft | 329 kts | 311° |
| 2026-05-03 22:52 | -30.67780 | -63.25628 | 12026 ft | 329 kts | 311° |
| 2026-05-03 22:53 | -30.66235 | -63.27536 | 12024 ft | 329 kts | 311° |
| 2026-05-03 22:53 | -30.64670 | -63.29469 | 12022 ft | 329 kts | 311° |
| 2026-05-03 22:53 | -30.63105 | -63.31403 | 12024 ft | 329 kts | 311° |
| 2026-05-03 22:53 | -30.61572 | -63.33369 | 12020 ft | 328 kts | 305° |
| 2026-05-03 22:54 | -30.60601 | -63.35727 | 12022 ft | 325 kts | 282° |
| 2026-05-03 22:54 | -30.60368 | -63.38332 | 12024 ft | 325 kts | 272° |
| 2026-05-03 22:54 | -30.60288 | -63.40958 | 12025 ft | 325 kts | 271° |
| 2026-05-03 22:54 | -30.60217 | -63.43579 | 12028 ft | 326 kts | 271° |
| 2026-05-03 22:55 | -30.60142 | -63.46208 | 12024 ft | 325 kts | 273° |
| 2026-05-03 22:55 | -30.59665 | -63.48724 | 12024 ft | 326 kts | 290° |
| 2026-05-03 22:55 | -30.58823 | -63.51171 | 12020 ft | 326 kts | 291° |
| 2026-05-03 22:55 | -30.57953 | -63.53604 | 12024 ft | 326 kts | 291° |
| 2026-05-03 22:56 | -30.57080 | -63.56034 | 12022 ft | 327 kts | 291° |
| 2026-05-03 22:56 | -30.56205 | -63.58465 | 12027 ft | 326 kts | 291° |
| 2026-05-03 22:56 | -30.55328 | -63.60896 | 12027 ft | 326 kts | 292° |
| 2026-05-03 22:56 | -30.54452 | -63.63326 | 12028 ft | 327 kts | 292° |
| 2026-05-03 22:57 | -30.53574 | -63.65758 | 12026 ft | 327 kts | 292° |
| 2026-05-03 22:57 | -30.52698 | -63.68185 | 12025 ft | 327 kts | 292° |
| 2026-05-03 22:57 | -30.51832 | -63.70588 | 12027 ft | 327 kts | 292° |
| 2026-05-03 22:57 | -30.50953 | -63.73021 | 12027 ft | 327 kts | 292° |
| 2026-05-03 22:58 | -30.50074 | -63.75454 | 12028 ft | 327 kts | 292° |
| 2026-05-03 22:58 | -30.49195 | -63.77886 | 12028 ft | 327 kts | 292° |
| 2026-05-03 22:58 | -30.48316 | -63.80320 | 12024 ft | 327 kts | 292° |
| 2026-05-03 22:58 | -30.47444 | -63.82758 | 12025 ft | 327 kts | 289° |
| 2026-05-03 22:59 | -30.47016 | -63.85330 | 12032 ft | 326 kts | 274° |
| 2026-05-03 22:59 | -30.46907 | -63.87961 | 12026 ft | 327 kts | 272° |
| 2026-05-03 22:59 | -30.46823 | -63.90592 | 12025 ft | 327 kts | 272° |
| 2026-05-03 22:59 | -30.46740 | -63.93223 | 12028 ft | 327 kts | 272° |
| 2026-05-03 23:00 | -30.46686 | -63.94967 | 12026 ft | 327 kts | 272° |
| 2026-05-03 23:00 | -30.46575 | -63.98451 | 12027 ft | 327 kts | 272° |
| 2026-05-03 23:00 | -30.46492 | -64.01086 | 12028 ft | 327 kts | 272° |
| 2026-05-03 23:00 | -30.46497 | -64.02864 | 12020 ft | 327 kts | 264° |
| 2026-05-03 23:01 | -30.47269 | -64.06240 | 12026 ft | 328 kts | 252° |
| 2026-05-03 23:01 | -30.47987 | -64.08751 | 12024 ft | 328 kts | 252° |
| 2026-05-03 23:01 | -30.48712 | -64.11259 | 12022 ft | 328 kts | 252° |
| 2026-05-03 23:01 | -30.49437 | -64.13767 | 12023 ft | 328 kts | 252° |
| 2026-05-03 23:02 | -30.49916 | -64.15427 | 12022 ft | 328 kts | 252° |
| 2026-05-03 23:02 | -30.50641 | -64.17937 | 12024 ft | 328 kts | 252° |
| 2026-05-03 23:02 | -30.51367 | -64.20450 | 12019 ft | 328 kts | 252° |
| 2026-05-03 23:02 | -30.52090 | -64.22960 | 12021 ft | 328 kts | 252° |
| 2026-05-03 23:03 | -30.52814 | -64.25476 | 12020 ft | 328 kts | 252° |
| 2026-05-03 23:03 | -30.53537 | -64.27988 | 12018 ft | 328 kts | 252° |
| 2026-05-03 23:03 | -30.54260 | -64.30501 | 12020 ft | 328 kts | 252° |
| 2026-05-03 23:03 | -30.54973 | -64.32976 | 12019 ft | 328 kts | 252° |
| 2026-05-03 23:04 | -30.55695 | -64.35485 | 12026 ft | 328 kts | 252° |
| 2026-05-03 23:04 | -30.56416 | -64.37995 | 12020 ft | 328 kts | 252° |
| 2026-05-03 23:04 | -30.57137 | -64.40504 | 12015 ft | 328 kts | 252° |
| 2026-05-03 23:04 | -30.57858 | -64.43013 | 12013 ft | 328 kts | 252° |
| 2026-05-03 23:05 | -30.58579 | -64.45522 | 12009 ft | 327 kts | 252° |
| 2026-05-03 23:05 | -30.59297 | -64.48029 | 12016 ft | 327 kts | 252° |
| 2026-05-03 23:05 | -30.60015 | -64.50539 | 12009 ft | 327 kts | 252° |
| 2026-05-03 23:05 | -30.60729 | -64.53044 | 12006 ft | 327 kts | 252° |
| 2026-05-03 23:06 | -30.61436 | -64.55519 | 12003 ft | 327 kts | 252° |
| 2026-05-03 23:06 | -30.62150 | -64.58027 | 12009 ft | 327 kts | 252° |
| 2026-05-03 23:06 | -30.62862 | -64.60534 | 12005 ft | 327 kts | 252° |
| 2026-05-03 23:06 | -30.63573 | -64.63039 | 12003 ft | 327 kts | 253° |
| 2026-05-03 23:07 | -30.64284 | -64.65541 | 11997 ft | 327 kts | 253° |
| 2026-05-03 23:07 | -30.64996 | -64.68049 | 12001 ft | 327 kts | 253° |
| 2026-05-03 23:07 | -30.65704 | -64.70557 | 12002 ft | 327 kts | 253° |
| 2026-05-03 23:07 | -30.66413 | -64.73065 | 11994 ft | 327 kts | 253° |
| 2026-05-03 23:08 | -30.67122 | -64.75578 | 11998 ft | 327 kts | 253° |
| 2026-05-03 23:08 | -30.67820 | -64.78059 | 11997 ft | 328 kts | 253° |
| 2026-05-03 23:08 | -30.68522 | -64.80575 | 11993 ft | 328 kts | 253° |
| 2026-05-03 23:08 | -30.69224 | -64.83095 | 11987 ft | 328 kts | 253° |
| 2026-05-03 23:09 | -30.69925 | -64.85618 | 11987 ft | 328 kts | 253° |
| 2026-05-03 23:09 | -30.70632 | -64.88141 | 11989 ft | 328 kts | 251° |
| 2026-05-03 23:09 | -30.71753 | -64.90437 | 11983 ft | 331 kts | 230° |
| 2026-05-03 23:09 | -30.73579 | -64.92066 | 11990 ft | 335 kts | 207° |
| 2026-05-03 23:10 | -30.75832 | -64.92754 | 11986 ft | 339 kts | 185° |
| 2026-05-03 23:10 | -30.78197 | -64.92543 | 11992 ft | 343 kts | 174° |
| 2026-05-03 23:10 | -30.80553 | -64.92133 | 11993 ft | 343 kts | 173° |
| 2026-05-03 23:10 | -30.82910 | -64.91706 | 11992 ft | 343 kts | 173° |
| 2026-05-03 23:11 | -30.85231 | -64.91283 | 11993 ft | 342 kts | 173° |
| 2026-05-03 23:11 | -30.87586 | -64.90853 | 11998 ft | 342 kts | 173° |
| 2026-05-03 23:11 | -30.89936 | -64.90422 | 11998 ft | 342 kts | 173° |
| 2026-05-03 23:11 | -30.92289 | -64.89993 | 11996 ft | 342 kts | 173° |
| 2026-05-03 23:12 | -30.94645 | -64.89565 | 12000 ft | 342 kts | 173° |
| 2026-05-03 23:12 | -30.96998 | -64.89138 | 11999 ft | 342 kts | 173° |
| 2026-05-03 23:12 | -30.99352 | -64.88710 | 12000 ft | 342 kts | 173° |
| 2026-05-03 23:12 | -31.01701 | -64.88283 | 12004 ft | 342 kts | 173° |
| 2026-05-03 23:13 | -31.04024 | -64.87860 | 12002 ft | 342 kts | 173° |
| 2026-05-03 23:13 | -31.06371 | -64.87433 | 12002 ft | 342 kts | 173° |
| 2026-05-03 23:13 | -31.08723 | -64.87004 | 12001 ft | 342 kts | 173° |
| 2026-05-03 23:13 | -31.11072 | -64.86576 | 12006 ft | 342 kts | 173° |
| 2026-05-03 23:14 | -31.13422 | -64.86147 | 12005 ft | 342 kts | 173° |
| 2026-05-03 23:14 | -31.15772 | -64.85720 | 12004 ft | 342 kts | 173° |
| 2026-05-03 23:14 | -31.18122 | -64.85295 | 12001 ft | 342 kts | 173° |
| 2026-05-03 23:14 | -31.20471 | -64.84871 | 12002 ft | 342 kts | 173° |
| 2026-05-03 23:15 | -31.22822 | -64.84446 | 12003 ft | 342 kts | 173° |
| 2026-05-03 23:15 | -31.25172 | -64.84019 | 12003 ft | 342 kts | 173° |
| 2026-05-03 23:15 | -31.27490 | -64.83600 | 12001 ft | 342 kts | 173° |
| 2026-05-03 23:15 | -31.29840 | -64.83177 | 11999 ft | 342 kts | 173° |
| 2026-05-03 23:16 | -31.32188 | -64.82754 | 11973 ft | 341 kts | 173° |
| 2026-05-03 23:16 | -31.34520 | -64.82336 | 11544 ft | 338 kts | 173° |
| 2026-05-03 23:16 | -31.36837 | -64.81925 | 11120 ft | 336 kts | 173° |
| 2026-05-03 23:16 | -31.39142 | -64.81521 | 10975 ft | 336 kts | 173° |
| 2026-05-03 23:17 | -31.41456 | -64.81118 | 10992 ft | 337 kts | 173° |
| 2026-05-03 23:17 | -31.43777 | -64.80716 | 10993 ft | 337 kts | 173° |
| 2026-05-03 23:17 | -31.46098 | -64.80312 | 10993 ft | 337 kts | 173° |
| 2026-05-03 23:17 | -31.48420 | -64.79910 | 10984 ft | 337 kts | 173° |
| 2026-05-03 23:18 | -31.50695 | -64.79518 | 10608 ft | 334 kts | 173° |
| 2026-05-03 23:18 | -31.52988 | -64.79128 | 10173 ft | 332 kts | 173° |
| 2026-05-03 23:18 | -31.55266 | -64.78746 | 9992 ft | 331 kts | 173° |
| 2026-05-03 23:18 | -31.57549 | -64.78371 | 9991 ft | 332 kts | 173° |
| 2026-05-03 23:19 | -31.59839 | -64.77998 | 9994 ft | 333 kts | 173° |
| 2026-05-03 23:19 | -31.62123 | -64.77532 | 9989 ft | 334 kts | 163° |
| 2026-05-03 23:19 | -31.64123 | -64.76272 | 9989 ft | 321 kts | 140° |
| 2026-05-03 23:19 | -31.65457 | -64.74268 | 9991 ft | 307 kts | 115° |
| 2026-05-03 23:20 | -31.65977 | -64.71880 | 9997 ft | 303 kts | 96° |
| 2026-05-03 23:20 | -31.66163 | -64.69420 | 9994 ft | 303 kts | 94° |
| 2026-05-03 23:20 | -31.66312 | -64.66953 | 9995 ft | 303 kts | 94° |
| 2026-05-03 23:20 | -31.66455 | -64.64516 | 9992 ft | 303 kts | 93° |
| 2026-05-03 23:21 | -31.66599 | -64.62049 | 9994 ft | 303 kts | 93° |
| 2026-05-03 23:21 | -31.66738 | -64.59584 | 9997 ft | 303 kts | 93° |
| 2026-05-03 23:21 | -31.66876 | -64.57118 | 9999 ft | 303 kts | 93° |
| 2026-05-03 23:21 | -31.67013 | -64.54655 | 9980 ft | 302 kts | 93° |
| 2026-05-03 23:22 | -31.67287 | -64.49774 | 9308 ft | 298 kts | 93° |
| 2026-05-03 23:22 | -31.67424 | -64.47355 | 8973 ft | 296 kts | 93° |
| 2026-05-03 23:22 | -31.67564 | -64.44952 | 8639 ft | 295 kts | 93° |
| 2026-05-03 23:23 | -31.67703 | -64.42589 | 8315 ft | 293 kts | 93° |
| 2026-05-03 23:23 | -31.67845 | -64.40217 | 8046 ft | 290 kts | 93° |
| 2026-05-03 23:23 | -31.67987 | -64.37859 | 7997 ft | 290 kts | 93° |
| 2026-05-03 23:23 | -31.68131 | -64.35485 | 8006 ft | 292 kts | 93° |
| 2026-05-03 23:24 | -31.68275 | -64.33109 | 8006 ft | 292 kts | 93° |
| 2026-05-03 23:24 | -31.68419 | -64.30735 | 8008 ft | 292 kts | 93° |
| 2026-05-03 23:24 | -31.68564 | -64.28365 | 8008 ft | 292 kts | 93° |
| 2026-05-03 23:24 | -31.68710 | -64.25989 | 8009 ft | 292 kts | 93° |
| 2026-05-03 23:25 | -31.68853 | -64.23613 | 8009 ft | 292 kts | 93° |
| 2026-05-03 23:25 | -31.68996 | -64.21233 | 8011 ft | 292 kts | 93° |
| 2026-05-03 23:25 | -31.69136 | -64.18888 | 8010 ft | 292 kts | 93° |
| 2026-05-03 23:25 | -31.69276 | -64.16509 | 8010 ft | 292 kts | 93° |
| 2026-05-03 23:26 | -31.69415 | -64.14129 | 8012 ft | 292 kts | 93° |
| 2026-05-03 23:26 | -31.69552 | -64.11747 | 8015 ft | 292 kts | 93° |
| 2026-05-03 23:26 | -31.69688 | -64.09366 | 8013 ft | 292 kts | 93° |
| 2026-05-03 23:26 | -31.69823 | -64.06996 | 7749 ft | 290 kts | 92° |
| 2026-05-03 23:27 | -31.69959 | -64.04642 | 7436 ft | 288 kts | 93° |
| 2026-05-03 23:27 | -31.70098 | -64.02299 | 7129 ft | 287 kts | 92° |
| 2026-05-03 23:27 | -31.70241 | -63.99978 | 7004 ft | 285 kts | 92° |
| 2026-05-03 23:27 | -31.70382 | -63.97652 | 7014 ft | 287 kts | 92° |
| 2026-05-03 23:28 | -31.70523 | -63.95348 | 7018 ft | 287 kts | 92° |
| 2026-05-03 23:28 | -31.70667 | -63.93007 | 7020 ft | 287 kts | 92° |
| 2026-05-03 23:28 | -31.70811 | -63.90667 | 7020 ft | 287 kts | 92° |
| 2026-05-03 23:28 | -31.70953 | -63.88329 | 7018 ft | 287 kts | 92° |
| 2026-05-03 23:29 | -31.70865 | -63.86008 | 7018 ft | 284 kts | 73° |
| 2026-05-03 23:29 | -31.70148 | -63.83855 | 7023 ft | 283 kts | 63° |
| 2026-05-03 23:29 | -31.69316 | -63.81762 | 7021 ft | 283 kts | 63° |
| 2026-05-03 23:29 | -31.68484 | -63.79705 | 7023 ft | 283 kts | 63° |
| 2026-05-03 23:30 | -31.67638 | -63.77622 | 7026 ft | 283 kts | 63° |
| 2026-05-03 23:30 | -31.66788 | -63.75533 | 7027 ft | 283 kts | 63° |
| 2026-05-03 23:30 | -31.65946 | -63.73457 | 6801 ft | 281 kts | 62° |
| 2026-05-03 23:30 | -31.65111 | -63.71389 | 6494 ft | 280 kts | 62° |
| 2026-05-03 23:31 | -31.64285 | -63.69329 | 6187 ft | 278 kts | 62° |
| 2026-05-03 23:31 | -31.63471 | -63.67292 | 6021 ft | 275 kts | 62° |
| 2026-05-03 23:31 | -31.62660 | -63.65256 | 6024 ft | 276 kts | 62° |
| 2026-05-03 23:31 | -31.61846 | -63.63213 | 6027 ft | 276 kts | 62° |
| 2026-05-03 23:32 | -31.61033 | -63.61173 | 6026 ft | 276 kts | 62° |
| 2026-05-03 23:32 | -31.60218 | -63.59131 | 6031 ft | 276 kts | 62° |
| 2026-05-03 23:32 | -31.59238 | -63.57255 | 6027 ft | 272 kts | 44° |
| 2026-05-03 23:32 | -31.57741 | -63.55961 | 6031 ft | 267 kts | 21° |
| 2026-05-03 23:33 | -31.55957 | -63.55469 | 6033 ft | 264 kts | 359° |
| 2026-05-03 23:33 | -31.54168 | -63.55838 | 6037 ft | 262 kts | 337° |
| 2026-05-03 23:33 | -31.52649 | -63.56997 | 6027 ft | 263 kts | 315° |
| 2026-05-03 23:33 | -31.51624 | -63.58757 | 5927 ft | 263 kts | 294° |
| 2026-05-03 23:34 | -31.51175 | -63.60834 | 5575 ft | 264 kts | 283° |
| 2026-05-03 23:34 | -31.50822 | -63.62950 | 5248 ft | 264 kts | 284° |
| 2026-05-03 23:34 | -31.50466 | -63.65045 | 5037 ft | 261 kts | 284° |
| 2026-05-03 23:34 | -31.50110 | -63.67113 | 5024 ft | 263 kts | 284° |
| 2026-05-03 23:35 | -31.49745 | -63.69214 | 5030 ft | 264 kts | 284° |
| 2026-05-03 23:35 | -31.49377 | -63.71325 | 5030 ft | 264 kts | 284° |
| 2026-05-03 23:35 | -31.49014 | -63.73427 | 5027 ft | 264 kts | 284° |
| 2026-05-03 23:35 | -31.48650 | -63.75533 | 5033 ft | 264 kts | 284° |
| 2026-05-03 23:36 | -31.48282 | -63.77637 | 5026 ft | 264 kts | 284° |
| 2026-05-03 23:36 | -31.47912 | -63.79742 | 5026 ft | 264 kts | 284° |
| 2026-05-03 23:36 | -31.47544 | -63.81845 | 5022 ft | 263 kts | 284° |
| 2026-05-03 23:36 | -31.47176 | -63.83946 | 5025 ft | 264 kts | 284° |
| 2026-05-03 23:37 | -31.46809 | -63.86048 | 5024 ft | 263 kts | 284° |
| 2026-05-03 23:37 | -31.46447 | -63.88121 | 5022 ft | 263 kts | 284° |
| 2026-05-03 23:37 | -31.46084 | -63.90216 | 5023 ft | 260 kts | 284° |
| 2026-05-03 23:37 | -31.45724 | -63.92279 | 5021 ft | 260 kts | 284° |
| 2026-05-03 23:38 | -31.45357 | -63.94365 | 5017 ft | 262 kts | 284° |
| 2026-05-03 23:38 | -31.44986 | -63.96458 | 5018 ft | 263 kts | 284° |
| 2026-05-03 23:38 | -31.44619 | -63.98532 | 5008 ft | 254 kts | 284° |
| 2026-05-03 23:38 | -31.44273 | -64.00504 | 5010 ft | 240 kts | 285° |
| 2026-05-03 23:39 | -31.43975 | -64.02398 | 4674 ft | 241 kts | 278° |
| 2026-05-03 23:39 | -31.43877 | -64.04340 | 4506 ft | 235 kts | 276° |
| 2026-05-03 23:39 | -31.43818 | -64.06178 | 4364 ft | 216 kts | 276° |
| 2026-05-03 23:39 | -31.43772 | -64.07860 | 4233 ft | 197 kts | 276° |
| 2026-05-03 23:40 | -31.43732 | -64.09375 | 4151 ft | 177 kts | 276° |
| 2026-05-03 23:40 | -31.43690 | -64.10752 | 3912 ft | 168 kts | 277° |
| 2026-05-03 23:40 | -31.43643 | -64.12115 | 3572 ft | 167 kts | 278° |
| 2026-05-03 23:40 | -31.43599 | -64.13446 | 3496 ft | 159 kts | 278° |
| 2026-05-03 23:41 | -31.43555 | -64.14740 | 3524 ft | 159 kts | 279° |
| 2026-05-03 23:41 | -31.43281 | -64.15953 | 3519 ft | 152 kts | 301° |
| 2026-05-03 23:41 | -31.42666 | -64.16927 | 3517 ft | 147 kts | 321° |
| 2026-05-03 23:41 | -31.41830 | -64.17597 | 3515 ft | 145 kts | 333° |
| 2026-05-03 23:42 | -31.40953 | -64.18204 | 3352 ft | 146 kts | 333° |
| 2026-05-03 23:42 | -31.40088 | -64.18807 | 3211 ft | 141 kts | 333° |
| 2026-05-03 23:42 | -31.39276 | -64.19381 | 2954 ft | 135 kts | 333° |
| 2026-05-03 23:42 | -31.38479 | -64.19963 | 2779 ft | 135 kts | 333° |
| 2026-05-03 23:43 | -31.37656 | -64.20464 | 2570 ft | 132 kts | 345° |
| 2026-05-03 23:43 | -31.36762 | -64.20688 | 2428 ft | 133 kts | 356° |
| 2026-05-03 23:43 | -31.35831 | -64.20761 | 2235 ft | 135 kts | 359° |
| 2026-05-03 23:43 | -31.34898 | -64.20778 | 2051 ft | 134 kts | 2° |
| 2026-05-03 23:44 | -31.33960 | -64.20782 | 1901 ft | 136 kts | 360° |
| 2026-05-03 23:44 | -31.33021 | -64.20807 | 1726 ft | 135 kts | 2° |
| 2026-05-03 23:44 | -31.32082 | -64.20820 | 1615 ft | 130 kts | 360° |
| 2026-05-03 23:44 | -31.31437 | -64.20829 | 1619 ft | 48 kts | 360° |
| 2026-05-03 23:45 | -31.31311 | -64.20823 | 1613 ft | 6 kts | 291° |
| 2026-05-03 23:45 | -31.31324 | -64.20829 | 1620 ft | 3 kts | 184° |
| 2026-05-03 23:45 | -31.31419 | -64.20839 | 1621 ft | 20 kts | 194° |
| 2026-05-03 23:45 | -31.31466 | -64.20965 | 1613 ft | 5 kts | 268° |
| 2026-05-03 23:46 | -31.31466 | -64.20966 | 1613 ft | 0 kts | 268° |
| 2026-05-03 23:46 | -31.31466 | -64.20973 | 1613 ft | 4 kts | 268° |
| 2026-05-03 23:47 | -31.31481 | -64.21032 | 1616 ft | 11 kts | 240° |
| 2026-05-03 23:47 | -31.31563 | -64.21095 | 1621 ft | 16 kts | 200° |
| 2026-05-03 23:47 | -31.31605 | -64.21107 | 1621 ft | 5 kts | 209° |
| 2026-05-03 23:47 | -31.31612 | -64.21169 | 1617 ft | 0 kts | 271° |